Time;durP1;ratioP1;P1;durP2;ratioP2;P2;SDS_P1;SDS_P2;PMS_P1;PMS_P2;Temp;Humidity;BMP_temperature;BMP_pressure;BME280_temperature;BME280_humidity;BME280_pressure;Samples;Min_cycle;Max_cycle;Signal;HPM_P1;HPM_P2
2022/12/07 00:00:19;;;;;;;;;;;;;;;;;;5052705;28;19925;-74
2022/12/07 00:02:45;;;;;;;;;;;;;;;;;;5052785;28;20020;-74
2022/12/07 00:05:12;;;;;;;;;;;;;;;;;;5052790;28;19964;-74
2022/12/07 00:07:40;;;;;;;;;;;;;;;;;;5052949;28;20473;-74
2022/12/07 00:10:07;;;;;;;;;;;;;;;;;;5052110;28;19971;-75
2022/12/07 00:12:33;;;;;;;;;;;;;;;;;;5052612;28;19925;-75
2022/12/07 00:15:00;;;;;;;;;;;;;;;;;;5054821;28;19979;-74
2022/12/07 00:17:26;;;;;;;;;;;;;;;;;;5054574;28;20016;-72
2022/12/07 00:19:53;;;;;;;;;;;;;;;;;;5053951;28;19925;-74
2022/12/07 00:22:19;;;;;;;;;;;;;;;;;;5054319;28;19931;-73
2022/12/07 00:24:47;;;;;;;;;;;;;;;;;;5054530;28;19928;-73
2022/12/07 00:27:13;;;;;;;;;;;;;;;;;;5054527;28;20015;-74
2022/12/07 00:29:40;;;;;;;;;;;;;;;;;;5054049;28;19925;-76
2022/12/07 00:32:06;;;;;;;;;;;;;;;;;;5054720;28;20011;-75
2022/12/07 00:34:33;;;;;;;;;;;;;;;;;;5054721;28;19924;-74
2022/12/07 00:36:59;;;;;;;;;;;;;;;;;;5054181;28;19924;-75
2022/12/07 00:39:26;;;;;;;;;;;;;;;;;;5053745;28;19931;-74
2022/12/07 00:41:53;;;;;;;;;;;;;;;;;;5054095;28;19932;-73
2022/12/07 00:44:20;;;;;;;;;;;;;;;;;;5054430;28;20035;-73
2022/12/07 00:46:46;;;;;;;;;;;;;;;;;;5053922;28;20479;-74
2022/12/07 00:49:13;;;;;;;;;;;;;;;;;;5053920;28;19957;-74
2022/12/07 00:51:39;;;;;;;;;;;;;;;;;;5053722;28;19972;-74
2022/12/07 00:54:05;;;;;;;;;;;;;;;;;;5053730;28;20395;-74
2022/12/07 00:56:32;;;;;;;;;;;;;;;;;;5054051;28;20379;-74
2022/12/07 00:59:01;;;;;;;;;;;;;;;;;;5053573;28;19971;-74
2022/12/07 01:01:28;;;;;;;;;;;;;;;;;;5053640;28;19932;-74
2022/12/07 01:03:55;;;;;;;;;;;;;;;;;;5053677;28;19925;-74
2022/12/07 01:06:22;;;;;;;;;;;;;;;;;;5053798;28;19929;-73
2022/12/07 01:08:48;;;;;;;;;;;;;;;;;;5053670;28;19964;-75
2022/12/07 01:11:16;;;;;;;;;;;;;;;;;;5053283;28;20402;-74
2022/12/07 01:13:42;;;;;;;;;;;;;;;;;;5053813;28;20024;-75
2022/12/07 01:16:11;;;;;;;;;;;;;;;;;;5054001;28;19931;-75
2022/12/07 01:18:38;;;;;;;;;;;;;;;;;;5053268;28;19924;-74
2022/12/07 01:21:05;;;;;;;;;;;;;;;;;;5053067;28;20346;-75
2022/12/07 01:23:32;;;;;;;;;;;;;;;;;;5053657;28;19928;-74
2022/12/07 01:26:00;;;;;;;;;;;;;;;;;;5053965;28;20019;-75
2022/12/07 01:28:27;;;;;;;;;;;;;;;;;;5052939;28;20386;-73
2022/12/07 01:30:57;;;;;;;;;;;;;;;;;;5053228;28;19925;-74
2022/12/07 01:33:25;;;;;;;;;;;;;;;;;;5057052;28;19924;-74
2022/12/07 01:35:51;;;;;;;;;;;;;;;;;;5057008;28;20400;-74
2022/12/07 01:38:18;;;;;;;;;;;;;;;;;;5056619;28;20008;-75
2022/12/07 01:40:44;;;;;;;;;;;;;;;;;;5055879;28;19964;-75
2022/12/07 01:43:15;;;;;;;;;;;;;;;;;;5062379;28;19992;-74
2022/12/07 01:45:42;;;;;;;;;;;;;;;;;;5054121;28;19978;-75
2022/12/07 01:48:08;;;;;;;;;;;;;;;;;;5052764;28;19929;-74
2022/12/07 01:50:36;;;;;;;;;;;;;;;;;;5052805;28;19925;-74
2022/12/07 01:53:04;;;;;;;;;;;;;;;;;;5052144;28;20005;-74
2022/12/07 01:55:30;;;;;;;;;;;;;;;;;;5052991;28;19924;-74
2022/12/07 01:57:57;;;;;;;;;;;;;;;;;;5052348;28;19931;-73
2022/12/07 02:00:24;;;;;;;;;;;;;;;;;;5052425;28;20413;-74
2022/12/07 02:02:53;;;;;;;;;;;;;;;;;;5051958;28;20390;-74
2022/12/07 02:05:19;;;;;;;;;;;;;;;;;;5053158;28;19931;-73
2022/12/07 02:07:48;;;;;;;;;;;;;;;;;;5052229;28;19925;-74
2022/12/07 02:10:15;;;;;;;;;;;;;;;;;;5053120;28;20015;-74
2022/12/07 02:12:42;;;;;;;;;;;;;;;;;;5052483;28;20322;-75
2022/12/07 02:15:09;;;;;;;;;;;;;;;;;;5052430;28;19925;-74
2022/12/07 02:17:40;;;;;;;;;;;;;;;;;;5052529;28;19956;-74
2022/12/07 02:20:18;;;;;;;;;;;;;;;;;;5052692;28;19975;-74
2022/12/07 02:23:03;;;;;;;;;;;;;;;;;;5052077;28;20032;-73
2022/12/07 02:25:38;;;;;;;;;;;;;;;;;;5032638;28;19931;-73
2022/12/07 02:28:06;;;;;;;;;;;;;;;;;;5043902;28;20039;-73
2022/12/07 02:30:35;;;;;;;;;;;;;;;;;;5052044;28;19925;-75
2022/12/07 02:33:04;;;;;;;;;;;;;;;;;;5052011;28;19929;-72
2022/12/07 02:35:33;;;;;;;;;;;;;;;;;;5051753;28;20269;-73
2022/12/07 02:41:04;;;;;;;;;;;;;;;;;;5047708;28;20283;-73
2022/12/07 02:43:32;;;;;;;;;;;;;;;;;;5051638;28;20008;-74
2022/12/07 02:46:02;;;;;;;;;;;;;;;;;;5051800;28;19924;-73
2022/12/07 02:48:29;;;;;;;;;;;;;;;;;;5051891;28;20307;-73
2022/12/07 02:50:56;;;;;;;;;;;;;;;;;;5051981;28;19925;-74
2022/12/07 02:53:33;;;;;;;;;;;;;;;;;;5052759;28;19929;-73
2022/12/07 02:56:00;;;;;;;;;;;;;;;;;;5052248;28;19925;-72
2022/12/07 02:58:31;;;;;;;;;;;;;;;;;;5051719;28;19924;-74
2022/12/07 03:01:05;;;;;;;;;;;;;;;;;;5051284;28;19924;-74
2022/12/07 03:03:31;;;;;;;;;;;;;;;;;;5043368;28;20019;-73
2022/12/07 03:06:03;;;;;;;;;;;;;;;;;;5051604;28;19971;-74
2022/12/07 03:08:32;;;;;;;;;;;;;;;;;;5053209;28;19947;-74
2022/12/07 03:11:00;;;;;;;;;;;;;;;;;;5051597;28;19925;-74
2022/12/07 03:13:29;;;;;;;;;;;;;;;;;;5051977;28;20023;-74
2022/12/07 03:15:59;;;;;;;;;;;;;;;;;;5051568;28;19925;-73
2022/12/07 03:18:28;;;;;;;;;;;;;;;;;;5051659;28;19931;-73
2022/12/07 03:20:57;;;;;;;;;;;;;;;;;;5050961;28;20372;-73
2022/12/07 03:23:24;;;;;;;;;;;;;;;;;;5051996;28;20066;-75
2022/12/07 03:25:53;;;;;;;;;;;;;;;;;;5051525;28;20045;-76
2022/12/07 03:28:24;;;;;;;;;;;;;;;;;;5051888;28;19925;-77
2022/12/07 03:30:53;;;;;;;;;;;;;;;;;;5050279;28;19931;-74
2022/12/07 03:33:21;;;;;;;;;;;;;;;;;;5051543;28;20387;-73
2022/12/07 03:35:51;;;;;;;;;;;;;;;;;;5051408;28;19932;-73
2022/12/07 03:38:20;;;;;;;;;;;;;;;;;;5051502;28;19935;-74
2022/12/07 03:40:50;;;;;;;;;;;;;;;;;;5051099;28;20027;-74
2022/12/07 03:43:17;;;;;;;;;;;;;;;;;;5051473;28;19947;-73
2022/12/07 03:45:46;;;;;;;;;;;;;;;;;;5051658;28;19925;-74
2022/12/07 03:48:21;;;;;;;;;;;;;;;;;;5054997;28;20411;-74
2022/12/07 03:50:50;;;;;;;;;;;;;;;;;;5054606;28;19968;-74
2022/12/07 03:53:20;;;;;;;;;;;;;;;;;;5054751;28;19924;-74
2022/12/07 03:55:47;;;;;;;;;;;;;;;;;;5055145;28;20362;-74
2022/12/07 03:58:15;;;;;;;;;;;;;;;;;;5054708;28;19964;-74
2022/12/07 04:00:42;;;;;;;;;;;;;;;;;;5054185;28;19931;-74
2022/12/07 04:03:08;;;;;;;;;;;;;;;;;;5054789;28;19971;-73
2022/12/07 04:05:35;;;;;;;;;;;;;;;;;;5055006;28;19924;-74
2022/12/07 04:08:01;;;;;;;;;;;;;;;;;;5054690;28;20350;-74
2022/12/07 04:10:29;;;;;;;;;;;;;;;;;;5054109;28;19924;-74
2022/12/07 04:12:56;;;;;;;;;;;;;;;;;;5054801;28;20020;-74
2022/12/07 04:15:22;;;;;;;;;;;;;;;;;;5054535;28;19925;-74
2022/12/07 04:17:48;;;;;;;;;;;;;;;;;;5054406;28;19925;-74
2022/12/07 04:20:15;;;;;;;;;;;;;;;;;;5054334;28;19924;-74
2022/12/07 04:22:41;;;;;;;;;;;;;;;;;;5054819;28;19931;-74
2022/12/07 04:25:08;;;;;;;;;;;;;;;;;;5054434;28;19931;-74
2022/12/07 04:27:36;;;;;;;;;;;;;;;;;;5054303;28;20011;-74
2022/12/07 04:30:02;;;;;;;;;;;;;;;;;;5053959;28;20007;-74
2022/12/07 04:32:29;;;;;;;;;;;;;;;;;;5053973;28;20383;-74
2022/12/07 04:34:55;;;;;;;;;;;;;;;;;;5054149;28;20384;-74
2022/12/07 04:37:22;;;;;;;;;;;;;;;;;;5054108;28;19947;-74
2022/12/07 04:39:48;;;;;;;;;;;;;;;;;;5053985;28;19924;-74
2022/12/07 04:42:14;;;;;;;;;;;;;;;;;;5053906;28;20346;-74
2022/12/07 04:44:42;;;;;;;;;;;;;;;;;;5053974;28;20582;-74
2022/12/07 04:47:09;;;;;;;;;;;;;;;;;;5054390;28;19968;-74
2022/12/07 04:49:35;;;;;;;;;;;;;;;;;;5053945;28;19925;-74
2022/12/07 04:52:02;;;;;;;;;;;;;;;;;;5053672;28;19939;-73
2022/12/07 04:54:28;;;;;;;;;;;;;;;;;;5054109;28;20008;-75
2022/12/07 04:56:55;;;;;;;;;;;;;;;;;;5053112;28;20005;-75
2022/12/07 04:59:21;;;;;;;;;;;;;;;;;;5053815;28;19925;-75
2022/12/07 05:01:49;;;;;;;;;;;;;;;;;;5053508;28;20003;-75
2022/12/07 05:04:17;;;;;;;;;;;;;;;;;;5053568;28;19925;-75
2022/12/07 05:06:44;;;;;;;;;;;;;;;;;;5053596;28;19929;-73
2022/12/07 05:09:10;;;;;;;;;;;;;;;;;;5053354;28;20434;-74
2022/12/07 05:11:40;;;;;;;;;;;;;;;;;;5053118;28;19963;-74
2022/12/07 05:14:07;;;;;;;;;;;;;;;;;;5053283;28;19928;-74
2022/12/07 05:16:34;;;;;;;;;;;;;;;;;;5053908;28;19929;-74
2022/12/07 05:19:02;;;;;;;;;;;;;;;;;;5053027;28;20028;-74
2022/12/07 05:21:28;;;;;;;;;;;;;;;;;;5053092;28;19928;-74
2022/12/07 05:23:55;;;;;;;;;;;;;;;;;;5053002;28;20451;-74
2022/12/07 05:26:21;;;;;;;;;;;;;;;;;;5053466;28;20022;-74
2022/12/07 05:28:50;;;;;;;;;;;;;;;;;;5053097;28;20023;-75
2022/12/07 05:31:17;;;;;;;;;;;;;;;;;;5053263;28;20012;-74
2022/12/07 05:33:43;;;;;;;;;;;;;;;;;;5053151;28;20007;-74
2022/12/07 05:36:11;;;;;;;;;;;;;;;;;;5053321;28;20295;-74
2022/12/07 05:38:37;;;;;;;;;;;;;;;;;;5052936;28;19924;-75
2022/12/07 05:41:04;;;;;;;;;;;;;;;;;;5052952;28;20374;-75
2022/12/07 05:43:31;;;;;;;;;;;;;;;;;;5054437;28;19931;-74
2022/12/07 05:45:57;;;;;;;;;;;;;;;;;;5055599;28;20462;-74
2022/12/07 05:48:24;;;;;;;;;;;;;;;;;;5053052;28;19935;-73
2022/12/07 05:50:50;;;;;;;;;;;;;;;;;;5053563;28;20020;-73
2022/12/07 05:53:18;;;;;;;;;;;;;;;;;;5052613;28;20015;-73
2022/12/07 05:55:45;;;;;;;;;;;;;;;;;;5053964;28;19947;-73
2022/12/07 06:00:55;;;;;;;;;;;;;;;;;;5031198;28;19929;-75
2022/12/07 06:03:21;;;;;;;;;;;;;;;;;;5052850;28;19931;-74
2022/12/07 06:05:48;;;;;;;;;;;;;;;;;;5052944;28;19975;-73
2022/12/07 06:08:15;;;;;;;;;;;;;;;;;;5051893;28;20454;-75
2022/12/07 06:10:42;;;;;;;;;;;;;;;;;;5052200;28;19975;-73
2022/12/07 06:13:08;;;;;;;;;;;;;;;;;;5052785;28;19924;-73
2022/12/07 06:15:36;;;;;;;;;;;;;;;;;;5052867;28;20016;-73
2022/12/07 06:18:02;;;;;;;;;;;;;;;;;;5052107;28;20015;-73
2022/12/07 06:20:29;;;;;;;;;;;;;;;;;;5052214;28;19931;-75
2022/12/07 06:22:55;;;;;;;;;;;;;;;;;;5052021;28;19925;-75
2022/12/07 06:25:21;;;;;;;;;;;;;;;;;;5052572;28;19964;-74
2022/12/07 06:27:49;;;;;;;;;;;;;;;;;;5051949;28;20016;-75
2022/12/07 06:30:16;;;;;;;;;;;;;;;;;;5052300;28;19967;-75
2022/12/07 06:32:42;;;;;;;;;;;;;;;;;;5052478;28;19956;-75
2022/12/07 06:35:09;;;;;;;;;;;;;;;;;;5052372;28;19971;-74
2022/12/07 06:37:35;;;;;;;;;;;;;;;;;;5052169;28;20016;-74
2022/12/07 06:40:02;;;;;;;;;;;;;;;;;;5052273;28;20268;-74
2022/12/07 06:42:29;;;;;;;;;;;;;;;;;;5051637;28;19929;-73
2022/12/07 06:44:56;;;;;;;;;;;;;;;;;;5052576;28;19925;-73
2022/12/07 06:47:23;;;;;;;;;;;;;;;;;;5052108;28;20051;-73
2022/12/07 06:49:49;;;;;;;;;;;;;;;;;;5052153;28;19925;-73
2022/12/07 06:52:16;;;;;;;;;;;;;;;;;;5051553;28;19967;-74
2022/12/07 06:54:42;;;;;;;;;;;;;;;;;;5051948;28;19925;-73
2022/12/07 06:57:09;;;;;;;;;;;;;;;;;;5051776;28;20020;-74
2022/12/07 06:59:35;;;;;;;;;;;;;;;;;;5052063;28;19968;-73
2022/12/07 07:02:03;;;;;;;;;;;;;;;;;;5051139;28;20366;-73
2022/12/07 07:04:29;;;;;;;;;;;;;;;;;;5051923;28;20024;-74
2022/12/07 07:06:56;;;;;;;;;;;;;;;;;;5052032;28;19925;-73
2022/12/07 07:09:22;;;;;;;;;;;;;;;;;;5051113;28;19996;-73
2022/12/07 07:11:48;;;;;;;;;;;;;;;;;;5051348;28;19925;-74
2022/12/07 07:14:18;;;;;;;;;;;;;;;;;;5052287;28;19967;-74
2022/12/07 07:16:45;;;;;;;;;;;;;;;;;;5051773;28;19929;-74
2022/12/07 07:19:13;;;;;;;;;;;;;;;;;;5051968;28;20015;-74
2022/12/07 07:21:39;;;;;;;;;;;;;;;;;;5054700;28;20391;-74
2022/12/07 07:24:06;;;;;;;;;;;;;;;;;;5055792;28;20015;-73
2022/12/07 07:26:32;;;;;;;;;;;;;;;;;;5055146;28;19928;-73
2022/12/07 07:28:59;;;;;;;;;;;;;;;;;;5056004;28;20360;-74
2022/12/07 07:31:25;;;;;;;;;;;;;;;;;;5054943;28;20031;-73
2022/12/07 07:33:52;;;;;;;;;;;;;;;;;;5062448;28;19991;-75
2022/12/07 07:36:20;;;;;;;;;;;;;;;;;;5055522;28;19931;-74
2022/12/07 07:38:46;;;;;;;;;;;;;;;;;;5054725;28;19932;-75
2022/12/07 07:41:13;;;;;;;;;;;;;;;;;;5055046;28;19925;-74
2022/12/07 07:43:39;;;;;;;;;;;;;;;;;;5055538;28;19956;-74
2022/12/07 07:46:06;;;;;;;;;;;;;;;;;;5055412;28;19925;-74
2022/12/07 07:48:32;;;;;;;;;;;;;;;;;;5055710;28;19975;-74
2022/12/07 07:50:59;;;;;;;;;;;;;;;;;;5054846;28;19968;-74
2022/12/07 07:53:27;;;;;;;;;;;;;;;;;;5055619;28;20011;-74
2022/12/07 07:55:54;;;;;;;;;;;;;;;;;;5055132;28;19931;-74
2022/12/07 07:58:20;;;;;;;;;;;;;;;;;;5054429;28;19925;-74
2022/12/07 08:00:47;;;;;;;;;;;;;;;;;;5054722;28;19932;-74
2022/12/07 08:03:14;;;;;;;;;;;;;;;;;;5054170;28;20411;-74
2022/12/07 08:05:40;;;;;;;;;;;;;;;;;;5038584;28;20411;-74
2022/12/07 08:08:06;;;;;;;;;;;;;;;;;;5034532;28;19952;-74
2022/12/07 08:10:35;;;;;;;;;;;;;;;;;;5045416;28;20431;-74
2022/12/07 08:13:13;;;;;;;;;;;;;;;;;;5055045;28;19968;-75
2022/12/07 08:15:40;;;;;;;;;;;;;;;;;;5053277;28;19925;-75
2022/12/07 08:18:07;;;;;;;;;;;;;;;;;;5053749;28;20019;-74
2022/12/07 08:20:34;;;;;;;;;;;;;;;;;;5052658;28;19925;-74
2022/12/07 08:23:01;;;;;;;;;;;;;;;;;;5053475;28;19926;-75
2022/12/07 08:25:27;;;;;;;;;;;;;;;;;;5053512;28;20008;-75
2022/12/07 08:27:55;;;;;;;;;;;;;;;;;;5053501;28;19936;-75
2022/12/07 08:30:22;;;;;;;;;;;;;;;;;;5052952;28;19925;-74
2022/12/07 08:32:49;;;;;;;;;;;;;;;;;;5051607;28;19931;-74
2022/12/07 08:35:15;;;;;;;;;;;;;;;;;;5052295;28;20019;-74
2022/12/07 08:37:42;;;;;;;;;;;;;;;;;;5050767;28;20019;-74
2022/12/07 08:40:10;;;;;;;;;;;;;;;;;;5052109;28;19931;-74
2022/12/07 08:42:39;;;;;;;;;;;;;;;;;;5052322;28;20061;-74
2022/12/07 08:45:09;;;;;;;;;;;;;;;;;;5052826;28;20027;-74
2022/12/07 08:47:36;;;;;;;;;;;;;;;;;;5051985;28;19935;-74
2022/12/07 08:50:03;;;;;;;;;;;;;;;;;;5052205;28;20022;-74
2022/12/07 08:52:30;;;;;;;;;;;;;;;;;;5052195;28;19925;-74
2022/12/07 08:54:57;;;;;;;;;;;;;;;;;;5051803;28;19936;-74
2022/12/07 08:57:23;;;;;;;;;;;;;;;;;;5052119;28;19925;-74
2022/12/07 08:59:50;;;;;;;;;;;;;;;;;;5051880;28;19931;-74
2022/12/07 09:02:18;;;;;;;;;;;;;;;;;;5051924;28;19975;-74
2022/12/07 09:04:45;;;;;;;;;;;;;;;;;;5052475;28;20019;-74
2022/12/07 09:07:11;;;;;;;;;;;;;;;;;;5051790;28;19925;-73
2022/12/07 09:09:38;;;;;;;;;;;;;;;;;;5051793;28;19928;-74
2022/12/07 09:12:04;;;;;;;;;;;;;;;;;;5052070;28;19925;-74
2022/12/07 09:14:31;;;;;;;;;;;;;;;;;;5051845;28;20497;-74
2022/12/07 09:17:05;;;;;;;;;;;;;;;;;;5052462;28;19925;-74
2022/12/07 09:19:33;;;;;;;;;;;;;;;;;;5051711;28;19925;-74
2022/12/07 09:21:59;;;;;;;;;;;;;;;;;;5051693;28;19929;-74
2022/12/07 09:24:26;;;;;;;;;;;;;;;;;;5051992;28;20019;-74
2022/12/07 09:26:52;;;;;;;;;;;;;;;;;;5051706;28;20031;-74
2022/12/07 09:29:19;;;;;;;;;;;;;;;;;;5051460;28;20023;-74
2022/12/07 09:31:45;;;;;;;;;;;;;;;;;;5050585;28;20252;-73
2022/12/07 09:34:12;;;;;;;;;;;;;;;;;;5050717;28;19924;-73
2022/12/07 09:36:40;;;;;;;;;;;;;;;;;;5051089;28;20426;-75
2022/12/07 09:39:07;;;;;;;;;;;;;;;;;;5057530;28;19931;-78
2022/12/07 09:41:33;;;;;;;;;;;;;;;;;;5061446;28;19963;-80
2022/12/07 09:44:04;;;;;;;;;;;;;;;;;;5062870;28;19951;-77
2022/12/07 09:47:02;;;;;;;;;;;;;;;;;;5063257;28;19971;-86
2022/12/07 09:49:30;;;;;;;;;;;;;;;;;;5068757;28;19925;-86
2022/12/07 09:52:02;;;;;;;;;;;;;;;;;;5069961;28;19928;-83
2022/12/07 09:54:29;;;;;;;;;;;;;;;;;;5066575;28;19925;-83
2022/12/07 09:56:56;;;;;;;;;;;;;;;;;;5062494;28;19999;-79
2022/12/07 09:59:22;;;;;;;;;;;;;;;;;;5053080;28;19931;-80
2022/12/07 10:01:50;;;;;;;;;;;;;;;;;;5054310;28;19925;-79
2022/12/07 10:04:17;;;;;;;;;;;;;;;;;;5055853;28;19967;-79
2022/12/07 10:06:45;;;;;;;;;;;;;;;;;;5051148;28;19925;-79
2022/12/07 10:09:14;;;;;;;;;;;;;;;;;;5059363;28;19932;-79
2022/12/07 10:12:04;;;;;;;;;;;;;;;;;;5057099;28;19925;-80
2022/12/07 10:14:32;;;;;;;;;;;;;;;;;;5040611;28;19989;-79
2022/12/07 10:16:59;;;;;;;;;;;;;;;;;;5056092;28;20015;-79
2022/12/07 10:19:26;;;;;;;;;;;;;;;;;;5055407;28;20008;-80
2022/12/07 10:22:03;;;;;;;;;;;;;;;;;;5054822;28;20016;-80
2022/12/07 10:24:31;;;;;;;;;;;;;;;;;;5054193;28;20027;-82
2022/12/07 10:26:58;;;;;;;;;;;;;;;;;;5054990;28;20028;-81
2022/12/07 10:29:25;;;;;;;;;;;;;;;;;;5054802;28;20007;-81
2022/12/07 10:31:55;;;;;;;;;;;;;;;;;;5053764;28;19925;-80
2022/12/07 10:34:23;;;;;;;;;;;;;;;;;;5053954;28;19968;-79
2022/12/07 10:36:50;;;;;;;;;;;;;;;;;;5053306;28;19924;-80
2022/12/07 10:39:18;;;;;;;;;;;;;;;;;;5054101;28;19940;-80
2022/12/07 10:41:56;;;;;;;;;;;;;;;;;;5053523;28;19939;-82
2022/12/07 10:44:23;;;;;;;;;;;;;;;;;;5053811;28;19933;-79
2022/12/07 10:46:55;;;;;;;;;;;;;;;;;;5054635;28;19925;-80
2022/12/07 10:49:34;;;;;;;;;;;;;;;;;;5045474;28;20034;-80
2022/12/07 10:52:05;;;;;;;;;;;;;;;;;;5049517;28;19952;-81
2022/12/07 10:54:39;;;;;;;;;;;;;;;;;;5048285;28;20085;-79
2022/12/07 10:57:16;;;;;;;;;;;;;;;;;;5057112;28;20024;-80
2022/12/07 11:00:03;;;;;;;;;;;;;;;;;;5058177;28;19925;-79
2022/12/07 11:02:38;;;;;;;;;;;;;;;;;;5052618;28;19924;-78
2022/12/07 11:05:13;;;;;;;;;;;;;;;;;;5059705;28;20122;-80
2022/12/07 11:07:43;;;;;;;;;;;;;;;;;;5059354;28;20584;-80
2022/12/07 11:10:13;;;;;;;;;;;;;;;;;;5059774;28;19991;-80
2022/12/07 11:12:50;;;;;;;;;;;;;;;;;;5058950;28;19971;-81
2022/12/07 11:15:20;;;;;;;;;;;;;;;;;;5059069;28;21445;-78
2022/12/07 11:17:49;;;;;;;;;;;;;;;;;;5059452;28;20306;-80
2022/12/07 11:20:23;;;;;;;;;;;;;;;;;;5060313;28;19972;-79
2022/12/07 11:22:52;;;;;;;;;;;;;;;;;;5061297;28;19992;-80
2022/12/07 11:25:22;;;;;;;;;;;;;;;;;;5061272;28;20466;-80
2022/12/07 11:27:56;;;;;;;;;;;;;;;;;;5060942;28;19960;-80
2022/12/07 11:30:24;;;;;;;;;;;;;;;;;;5060550;28;20319;-80
2022/12/07 11:32:59;;;;;;;;;;;;;;;;;;5061090;28;19968;-80
2022/12/07 11:35:31;;;;;;;;;;;;;;;;;;5061357;28;19925;-82
2022/12/07 11:38:00;;;;;;;;;;;;;;;;;;5061392;28;19925;-80
2022/12/07 11:40:28;;;;;;;;;;;;;;;;;;5061313;28;19928;-80
2022/12/07 11:42:59;;;;;;;;;;;;;;;;;;5045368;28;19933;-81
2022/12/07 11:45:27;;;;;;;;;;;;;;;;;;5054081;28;19932;-80
2022/12/07 11:47:55;;;;;;;;;;;;;;;;;;5062020;28;19997;-81
2022/12/07 11:50:27;;;;;;;;;;;;;;;;;;5062342;28;19955;-81
2022/12/07 11:52:55;;;;;;;;;;;;;;;;;;5061420;28;19963;-81
2022/12/07 11:55:26;;;;;;;;;;;;;;;;;;5062538;28;20011;-82
2022/12/07 11:57:55;;;;;;;;;;;;;;;;;;5060498;28;20386;-79
2022/12/07 12:00:23;;;;;;;;;;;;;;;;;;5059555;28;20011;-81
2022/12/07 12:02:52;;;;;;;;;;;;;;;;;;5061358;28;20046;-79
2022/12/07 12:05:20;;;;;;;;;;;;;;;;;;5070074;28;19936;-81
2022/12/07 12:07:49;;;;;;;;;;;;;;;;;;5060433;28;19928;-82
2022/12/07 12:10:18;;;;;;;;;;;;;;;;;;5058757;28;19924;-80
2022/12/07 12:12:51;;;;;;;;;;;;;;;;;;5058146;28;19931;-81
2022/12/07 12:15:29;;;;;;;;;;;;;;;;;;5060043;28;20295;-80
2022/12/07 12:18:18;;;;;;;;;;;;;;;;;;5077235;28;19912;-80
2022/12/07 12:20:46;;;;;;;;;;;;;;;;;;5077035;28;19912;-79
2022/12/07 12:23:16;;;;;;;;;;;;;;;;;;5060857;28;19971;-81
2022/12/07 12:25:44;;;;;;;;;;;;;;;;;;5059473;28;20116;-79
2022/12/07 12:28:19;;;;;;;;;;;;;;;;;;5059043;28;20295;-79
2022/12/07 12:31:04;;;;;;;;;;;;;;;;;;5058534;28;19952;-81
2022/12/07 12:33:31;;;;;;;;;;;;;;;;;;5058021;28;20383;-79
2022/12/07 12:36:13;;;;;;;;;;;;;;;;;;5058141;28;19925;-81
2022/12/07 12:38:50;;;;;;;;;;;;;;;;;;5059342;28;20010;-83
2022/12/07 12:41:31;;;;;;;;;;;;;;;;;;5049177;28;19945;-80
2022/12/07 12:43:58;;;;;;;;;;;;;;;;;;5050081;28;19937;-80
2022/12/07 12:46:48;;;;;;;;;;;;;;;;;;5070683;28;19952;-80
2022/12/07 12:49:31;;;;;;;;;;;;;;;;;;5068365;28;19996;-80
2022/12/07 12:51:58;;;;;;;;;;;;;;;;;;5069689;28;19990;-80
2022/12/07 12:54:26;;;;;;;;;;;;;;;;;;5069038;28;19925;-80
2022/12/07 12:56:56;;;;;;;;;;;;;;;;;;5061829;28;19925;-80
2022/12/07 12:59:24;;;;;;;;;;;;;;;;;;5061907;28;20011;-81
2022/12/07 13:01:51;;;;;;;;;;;;;;;;;;5060820;28;19931;-82
2022/12/07 13:04:31;;;;;;;;;;;;;;;;;;5060907;28;19924;-81
2022/12/07 13:06:58;;;;;;;;;;;;;;;;;;5061888;28;19929;-81
2022/12/07 13:09:26;;;;;;;;;;;;;;;;;;5062302;28;20422;-80
2022/12/07 13:11:58;;;;;;;;;;;;;;;;;;5059561;28;19987;-81
2022/12/07 13:14:44;;;;;;;;;;;;;;;;;;5060538;28;19994;-80
2022/12/07 13:17:10;;;;;;;;;;;;;;;;;;5062299;28;19931;-82
2022/12/07 13:20:01;;;;;;;;;;;;;;;;;;5062089;28;19932;-81
2022/12/07 13:22:41;;;;;;;;;;;;;;;;;;5060813;28;19925;-81
2022/12/07 13:25:10;;;;;;;;;;;;;;;;;;5061719;28;20128;-81
2022/12/07 13:27:38;;;;;;;;;;;;;;;;;;5060617;28;19967;-81
2022/12/07 13:30:10;;;;;;;;;;;;;;;;;;5061273;28;20051;-79
2022/12/07 13:32:36;;;;;;;;;;;;;;;;;;5061369;28;19932;-80
2022/12/07 13:35:18;;;;;;;;;;;;;;;;;;5060009;28;19979;-81
2022/12/07 13:37:46;;;;;;;;;;;;;;;;;;5059193;28;19940;-80
2022/12/07 13:40:18;;;;;;;;;;;;;;;;;;5060938;28;20015;-81
2022/12/07 13:42:45;;;;;;;;;;;;;;;;;;5060560;28;19989;-81
2022/12/07 13:45:21;;;;;;;;;;;;;;;;;;5060051;28;20016;-81
2022/12/07 13:47:50;;;;;;;;;;;;;;;;;;5061108;28;19964;-80
2022/12/07 13:50:23;;;;;;;;;;;;;;;;;;5062430;28;19951;-80
2022/12/07 13:52:51;;;;;;;;;;;;;;;;;;5061015;28;19988;-80
2022/12/07 13:55:18;;;;;;;;;;;;;;;;;;5058837;28;19991;-80
2022/12/07 13:57:45;;;;;;;;;;;;;;;;;;5066384;28;19925;-79
2022/12/07 14:00:16;;;;;;;;;;;;;;;;;;5073381;28;20000;-81
2022/12/07 14:02:55;;;;;;;;;;;;;;;;;;5067015;28;20308;-81
2022/12/07 14:05:25;;;;;;;;;;;;;;;;;;5058545;28;19929;-82
2022/12/07 14:07:56;;;;;;;;;;;;;;;;;;5057677;28;19925;-82
2022/12/07 14:10:25;;;;;;;;;;;;;;;;;;5038027;28;19925;-82
2022/12/07 14:12:51;;;;;;;;;;;;;;;;;;5048560;28;19940;-84
2022/12/07 14:15:21;;;;;;;;;;;;;;;;;;5058026;28;20023;-85
2022/12/07 14:17:51;;;;;;;;;;;;;;;;;;5058104;28;19973;-85
2022/12/07 14:20:31;;;;;;;;;;;;;;;;;;5057851;28;19973;-85
2022/12/07 14:22:59;;;;;;;;;;;;;;;;;;5057858;28;19932;-84
2022/12/07 14:25:26;;;;;;;;;;;;;;;;;;5057457;28;22013;-84
2022/12/07 14:27:55;;;;;;;;;;;;;;;;;;5056632;28;19925;-84
2022/12/07 14:30:22;;;;;;;;;;;;;;;;;;5037622;28;20304;-82
2022/12/07 14:32:51;;;;;;;;;;;;;;;;;;5074246;23;19959;-64
2022/12/07 14:35:18;;;;;;;;;;;;;;;;;;5011092;28;20372;-65
2022/12/07 14:37:46;;;;;;;;;;;;;;;;;;5003133;28;20040;-65
2022/12/07 14:40:15;;;;;;;;;;;;;;;;;;5000063;28;19956;-64
2022/12/07 14:42:42;;;;;;;;;;;;;;;;;;5001280;28;20421;-65
2022/12/07 14:45:14;;;;;;;;;;;;;;;;;;5011048;28;19926;-65
2022/12/07 14:47:40;;;;;;;;;;;;;;;;;;5009457;28;19944;-67
2022/12/07 14:50:07;;;;;;;;;;;;;;;;;;5009844;28;19972;-66
2022/12/07 14:52:34;;;;;;;;;;;;;;;;;;5009989;28;20583;-66
2022/12/07 14:55:01;;;;;;;;;;;;;;;;;;5010335;28;19976;-66
2022/12/07 14:57:29;;;;;;;;;;;;;;;;;;5010845;28;19929;-66
2022/12/07 14:59:55;;;;;;;;;;;;;;;;;;5010236;28;20441;-66
2022/12/07 15:02:22;;;;;;;;;;;;;;;;;;5010702;28;19936;-66
2022/12/07 15:04:49;;;;;;;;;;;;;;;;;;5010907;28;19929;-66
2022/12/07 15:07:20;;;;;;;;;;;;;;;;;;5010921;28;19992;-67
2022/12/07 15:09:46;;;;;;;;;;;;;;;;;;5010954;28;20005;-65
2022/12/07 15:12:13;;;;;;;;;;;;;;;;;;5010962;28;20326;-66
2022/12/07 15:14:41;;;;;;;;;;;;;;;;;;5010938;28;19975;-66
2022/12/07 15:17:10;;;;;;;;;;;;;;;;;;5010933;28;20396;-65
2022/12/07 15:19:37;;;;;;;;;;;;;;;;;;5011116;28;19975;-65
2022/12/07 15:22:03;;;;;;;;;;;;;;;;;;5007673;28;19926;-65
2022/12/07 15:24:30;;;;;;;;;;;;;;;;;;4991223;28;19930;-65
2022/12/07 15:26:56;;;;;;;;;;;;;;;;;;4990992;28;19932;-66
2022/12/07 15:29:23;;;;;;;;;;;;;;;;;;4990917;28;20184;-66
2022/12/07 15:31:51;;;;;;;;;;;;;;;;;;4991241;28;19933;-66
2022/12/07 15:34:18;;;;;;;;;;;;;;;;;;4990793;28;20001;-67
2022/12/07 15:36:44;;;;;;;;;;;;;;;;;;4991167;28;20422;-66
2022/12/07 15:39:11;;;;;;;;;;;;;;;;;;4990742;28;19926;-66
2022/12/07 15:41:37;;;;;;;;;;;;;;;;;;4992457;28;19941;-66
2022/12/07 15:46:48;;;;;;;;;;;;;;;;;;4994662;28;19937;-66
2022/12/07 15:49:17;;;;;;;;;;;;;;;;;;4994313;28;19926;-66
2022/12/07 15:51:44;;;;;;;;;;;;;;;;;;4994661;28;19930;-67
2022/12/07 15:54:13;;;;;;;;;;;;;;;;;;4994843;28;19961;-66
2022/12/07 15:56:40;;;;;;;;;;;;;;;;;;4994679;28;20390;-67
2022/12/07 15:59:06;;;;;;;;;;;;;;;;;;4994201;28;19930;-66
2022/12/07 16:01:33;;;;;;;;;;;;;;;;;;4994417;28;20275;-66
2022/12/07 16:04:00;;;;;;;;;;;;;;;;;;4994583;28;19930;-67
2022/12/07 16:06:27;;;;;;;;;;;;;;;;;;4994618;28;19926;-67
2022/12/07 16:08:54;;;;;;;;;;;;;;;;;;4993439;28;19966;-67
2022/12/07 16:11:21;;;;;;;;;;;;;;;;;;4994364;28;19956;-66
2022/12/07 16:13:47;;;;;;;;;;;;;;;;;;4994195;28;19926;-66
2022/12/07 16:16:15;;;;;;;;;;;;;;;;;;4993672;28;19929;-65
2022/12/07 16:18:43;;;;;;;;;;;;;;;;;;4994201;28;19977;-65
2022/12/07 16:21:09;;;;;;;;;;;;;;;;;;4993726;28;19933;-66
2022/12/07 16:23:37;;;;;;;;;;;;;;;;;;4994205;28;20290;-66
2022/12/07 16:26:05;;;;;;;;;;;;;;;;;;4993919;28;19926;-66
2022/12/07 16:28:31;;;;;;;;;;;;;;;;;;4994040;28;19972;-66
2022/12/07 16:31:01;;;;;;;;;;;;;;;;;;4993801;28;19925;-66
2022/12/07 16:33:27;;;;;;;;;;;;;;;;;;4993307;28;19983;-67
2022/12/07 16:35:54;;;;;;;;;;;;;;;;;;4993987;28;19930;-67
2022/12/07 16:38:20;;;;;;;;;;;;;;;;;;4993572;28;19957;-66
2022/12/07 16:40:49;;;;;;;;;;;;;;;;;;4993678;28;19930;-66
2022/12/07 16:43:16;;;;;;;;;;;;;;;;;;4993501;28;19949;-65
2022/12/07 16:45:42;;;;;;;;;;;;;;;;;;4993642;28;19926;-65
2022/12/07 16:48:09;;;;;;;;;;;;;;;;;;4993578;28;19938;-65
2022/12/07 16:50:35;;;;;;;;;;;;;;;;;;4993558;28;20347;-66
2022/12/07 16:53:02;;;;;;;;;;;;;;;;;;4993050;28;20019;-65
2022/12/07 16:55:29;;;;;;;;;;;;;;;;;;4993549;28;19992;-65
2022/12/07 16:57:57;;;;;;;;;;;;;;;;;;4993320;28;19930;-65
2022/12/07 17:00:24;;;;;;;;;;;;;;;;;;4999361;28;20287;-68
2022/12/07 17:02:51;;;;;;;;;;;;;;;;;;5010387;28;20322;-68